PWSweather.com
Personal Weather Stations
Station Observations

SasamonSasamonES 09123

Lat: 42.4180252, Lon: -4.0413679

Elevation: 2706.692

Station Type: PCE-FWS 20

http://www.mipaginapersonal.movistar.es/web3/meteosasamon/index.htm

High Low Average
Temperature 50.7°F10.4°C 23.2°F-4.9°C 35.3°F1.8°C
Dew Point 34.1°F1.2°C 18.4°F-7.6°C 27.0°F-2.8°C
Winds 8.3 mph 13.4 kmh Calm Calm 3.0 mph SE4.8 kmh SE
Wind Gusts 13.6 mph21.9 kmh 0.7 mph1.1 kmh 6.0 mph9.7 kmh
Humidity 86% 47% 73%
Pressure 30.19 in1022.4 mb 29.86 in1011.2 mb -
Precipitation 0.01 in0.3 mm - -
Hour Temp Dew Point Humidity Winds Wind Gusts Pressure Precip Precip Rate Daily Precip Total
12:05 AM 32.9°F0.5°C 27.1°F-2.7°C 79% 5.1 mph NE8.2 kmh NE 10.7 mph17.2 kmh 30.18 in1022.0 mb 0.00 in0.0 mm 0.00 in/hr0.0 mm/hr 0.01 in0.3 mm
12:16 AM 32.7°F0.4°C 26.9°F-2.8°C 79% 5.0 mph NE8.0 kmh NE 13.0 mph20.9 kmh 30.19 in1022.4 mb 0.00 in0.0 mm 0.00 in/hr0.0 mm/hr 0.01 in0.3 mm
12:27 AM 32.5°F0.3°C 26.8°F-2.9°C 79% 4.8 mph NE7.7 kmh NE 9.2 mph14.8 kmh 30.18 in1022.0 mb 0.00 in0.0 mm 0.00 in/hr0.0 mm/hr 0.01 in0.3 mm
12:38 AM 32.9°F0.5°C 27.1°F-2.7°C 79% 6.3 mph NE10.1 kmh NE 13.6 mph21.9 kmh 30.18 in1022.0 mb 0.00 in0.0 mm 0.00 in/hr0.0 mm/hr 0.01 in0.3 mm
12:49 AM 32.7°F0.4°C 27.2°F-2.7°C 80% 4.9 mph NE7.9 kmh NE 13.0 mph20.9 kmh 30.18 in1022.0 mb 0.00 in0.0 mm 0.00 in/hr0.0 mm/hr 0.01 in0.3 mm
01:00 AM 32.5°F0.3°C 26.8°F-2.9°C 79% 4.7 mph ENE7.6 kmh ENE 11.4 mph18.3 kmh 30.18 in1022.0 mb 0.00 in0.0 mm 0.00 in/hr0.0 mm/hr 0.00 in0.0 mm
01:11 AM 32.4°F0.2°C 26.9°F-2.8°C 80% 3.3 mph ENE5.3 kmh ENE 9.8 mph15.8 kmh 30.18 in1022.0 mb 0.00 in0.0 mm 0.00 in/hr0.0 mm/hr 0.00 in0.0 mm
01:22 AM 32.0°F0.0°C 26.2°F-3.2°C 79% 2.6 mph N4.2 kmh N 7.6 mph12.2 kmh 30.18 in1022.0 mb 0.00 in0.0 mm 0.00 in/hr0.0 mm/hr 0.00 in0.0 mm
01:33 AM 31.1°F-0.5°C 25.4°F-3.7°C 79% 4.4 mph N7.1 kmh N 8.3 mph13.4 kmh 30.18 in1022.0 mb 0.00 in0.0 mm 0.00 in/hr0.0 mm/hr 0.00 in0.0 mm
01:44 AM 30.6°F-0.8°C 24.8°F-4.0°C 79% 4.1 mph N6.6 kmh N 8.3 mph13.4 kmh 30.18 in1022.0 mb 0.00 in0.0 mm 0.00 in/hr0.0 mm/hr 0.00 in0.0 mm
01:55 AM 30.0°F-1.1°C 24.3°F-4.3°C 79% 3.2 mph N5.1 kmh N 6.9 mph11.1 kmh 30.18 in1022.0 mb 0.00 in0.0 mm 0.00 in/hr0.0 mm/hr 0.00 in0.0 mm
02:06 AM 29.7°F-1.3°C 24.0°F-4.4°C 79% 3.1 mph N5.0 kmh N 6.0 mph9.7 kmh 30.18 in1022.0 mb 0.00 in0.0 mm 0.00 in/hr0.0 mm/hr 0.00 in0.0 mm
02:17 AM 28.8°F-1.8°C 23.1°F-4.9°C 79% 3.1 mph N5.0 kmh N 5.4 mph8.7 kmh 30.17 in1021.7 mb 0.00 in0.0 mm 0.00 in/hr0.0 mm/hr 0.00 in0.0 mm
02:28 AM 28.0°F-2.2°C 22.1°F-5.5°C 78% 2.9 mph N4.7 kmh N 4.5 mph7.2 kmh 30.18 in1022.0 mb 0.00 in0.0 mm 0.00 in/hr0.0 mm/hr 0.00 in0.0 mm
02:39 AM 27.9°F-2.3°C 22.2°F-5.4°C 79% 2.1 mph N3.4 kmh N 3.8 mph6.1 kmh 30.18 in1022.0 mb 0.00 in0.0 mm 0.00 in/hr0.0 mm/hr 0.00 in0.0 mm
02:50 AM 27.3°F-2.6°C 21.4°F-5.9°C 78% 1.1 mph N1.8 kmh N 3.8 mph6.1 kmh 30.18 in1022.0 mb 0.00 in0.0 mm 0.00 in/hr0.0 mm/hr 0.00 in0.0 mm
03:01 AM 27.0°F-2.8°C 21.0°F-6.1°C 78% 0.1 mph NE0.2 kmh NE 2.2 mph3.5 kmh 30.18 in1022.0 mb 0.00 in0.0 mm 0.00 in/hr0.0 mm/hr 0.00 in0.0 mm
03:12 AM 27.1°F-2.7°C 21.2°F-6.0°C 78% 0.5 mph NE0.8 kmh NE 2.2 mph3.5 kmh 30.18 in1022.0 mb 0.00 in0.0 mm 0.00 in/hr0.0 mm/hr 0.00 in0.0 mm
03:23 AM 27.1°F-2.7°C 21.2°F-6.0°C 78% Calm Calm 1.6 mph2.6 kmh 30.18 in1022.0 mb 0.00 in0.0 mm 0.00 in/hr0.0 mm/hr 0.00 in0.0 mm
03:34 AM 27.1°F-2.7°C 21.2°F-6.0°C 78% Calm Calm 0.7 mph1.1 kmh 30.17 in1021.7 mb 0.00 in0.0 mm 0.00 in/hr0.0 mm/hr 0.00 in0.0 mm
03:45 AM 27.1°F-2.7°C 21.2°F-6.0°C 78% Calm Calm 1.6 mph2.6 kmh 30.17 in1021.7 mb 0.00 in0.0 mm 0.00 in/hr0.0 mm/hr 0.00 in0.0 mm
03:56 AM 26.8°F-2.9°C 21.2°F-6.0°C 79% 0.7 mph S1.1 kmh S 1.6 mph2.6 kmh 30.17 in1021.7 mb 0.00 in0.0 mm 0.00 in/hr0.0 mm/hr 0.00 in0.0 mm
04:07 AM 27.0°F-2.8°C 21.3°F-5.9°C 79% 0.7 mph S1.1 kmh S 2.2 mph3.5 kmh 30.17 in1021.7 mb 0.00 in0.0 mm 0.00 in/hr0.0 mm/hr 0.00 in0.0 mm
04:18 AM 27.0°F-2.8°C 21.3°F-5.9°C 79% 1.3 mph S2.1 kmh S 2.2 mph3.5 kmh 30.16 in1021.3 mb 0.00 in0.0 mm 0.00 in/hr0.0 mm/hr 0.00 in0.0 mm
04:29 AM 26.8°F-2.9°C 21.5°F-5.8°C 80% 1.7 mph S2.7 kmh S 3.8 mph6.1 kmh 30.16 in1021.3 mb 0.00 in0.0 mm 0.00 in/hr0.0 mm/hr 0.00 in0.0 mm
04:40 AM 27.0°F-2.8°C 21.6°F-5.8°C 80% 0.6 mph S1.0 kmh S 2.2 mph3.5 kmh 30.15 in1021.0 mb 0.00 in0.0 mm 0.00 in/hr0.0 mm/hr 0.00 in0.0 mm
04:51 AM 26.6°F-3.0°C 21.0°F-6.1°C 79% 1.1 mph S1.8 kmh S 2.2 mph3.5 kmh 30.15 in1021.0 mb 0.00 in0.0 mm 0.00 in/hr0.0 mm/hr 0.00 in0.0 mm
05:02 AM 26.2°F-3.2°C 20.9°F-6.2°C 80% 2.2 mph S3.5 kmh S 4.5 mph7.2 kmh 30.15 in1021.0 mb 0.00 in0.0 mm 0.00 in/hr0.0 mm/hr 0.00 in0.0 mm
05:13 AM 26.2°F-3.2°C 20.9°F-6.2°C 80% 2.2 mph SW3.5 kmh SW 3.8 mph6.1 kmh 30.15 in1021.0 mb 0.00 in0.0 mm 0.00 in/hr0.0 mm/hr 0.00 in0.0 mm
05:24 AM 25.7°F-3.5°C 20.4°F-6.4°C 80% 2.1 mph S3.4 kmh S 3.8 mph6.1 kmh 30.15 in1021.0 mb 0.00 in0.0 mm 0.00 in/hr0.0 mm/hr 0.00 in0.0 mm
05:35 AM 25.3°F-3.7°C 20.1°F-6.6°C 80% 1.3 mph S2.1 kmh S 3.1 mph5.0 kmh 30.14 in1020.7 mb 0.00 in0.0 mm 0.00 in/hr0.0 mm/hr 0.00 in0.0 mm
05:46 AM 25.3°F-3.7°C 20.1°F-6.6°C 80% 0.6 mph S1.0 kmh S 2.2 mph3.5 kmh 30.15 in1021.0 mb 0.00 in0.0 mm 0.00 in/hr0.0 mm/hr 0.00 in0.0 mm
05:57 AM 25.0°F-3.9°C 19.7°F-6.8°C 80% Calm Calm 1.6 mph2.6 kmh 30.15 in1021.0 mb 0.00 in0.0 mm 0.00 in/hr0.0 mm/hr 0.00 in0.0 mm
06:08 AM 24.8°F-4.0°C 19.5°F-6.9°C 80% 0.1 mph S0.2 kmh S 1.6 mph2.6 kmh 30.15 in1021.0 mb 0.00 in0.0 mm 0.00 in/hr0.0 mm/hr 0.00 in0.0 mm
06:19 AM 24.8°F-4.0°C 19.5°F-6.9°C 80% 1.5 mph S2.4 kmh S 3.1 mph5.0 kmh 30.15 in1021.0 mb 0.00 in0.0 mm 0.00 in/hr0.0 mm/hr 0.00 in0.0 mm
06:30 AM 25.2°F-3.8°C 19.9°F-6.7°C 80% 2.1 mph S3.4 kmh S 4.5 mph7.2 kmh 30.14 in1020.7 mb 0.00 in0.0 mm 0.00 in/hr0.0 mm/hr 0.00 in0.0 mm
06:41 AM 25.2°F-3.8°C 19.9°F-6.7°C 80% 1.7 mph SW2.7 kmh SW 3.8 mph6.1 kmh 30.15 in1021.0 mb 0.00 in0.0 mm 0.00 in/hr0.0 mm/hr 0.00 in0.0 mm
06:52 AM 25.3°F-3.7°C 20.1°F-6.6°C 80% 1.4 mph SW2.3 kmh SW 3.8 mph6.1 kmh 30.15 in1021.0 mb 0.00 in0.0 mm 0.00 in/hr0.0 mm/hr 0.00 in0.0 mm
07:03 AM 25.2°F-3.8°C 19.9°F-6.7°C 80% 1.0 mph SW1.6 kmh SW 2.2 mph3.5 kmh 30.15 in1021.0 mb 0.00 in0.0 mm 0.00 in/hr0.0 mm/hr 0.00 in0.0 mm
07:14 AM 24.3°F-4.3°C 19.3°F-7.1°C 81% 0.6 mph S1.0 kmh S 2.2 mph3.5 kmh 30.15 in1021.0 mb 0.00 in0.0 mm 0.00 in/hr0.0 mm/hr 0.00 in0.0 mm
07:25 AM 23.4°F-4.8°C 18.4°F-7.6°C 81% Calm Calm 0.7 mph1.1 kmh 30.15 in1021.0 mb 0.00 in0.0 mm 0.00 in/hr0.0 mm/hr 0.00 in0.0 mm
07:36 AM 23.5°F-4.7°C 18.6°F-7.4°C 81% 0.6 mph S1.0 kmh S 3.8 mph6.1 kmh 30.15 in1021.0 mb 0.00 in0.0 mm 0.00 in/hr0.0 mm/hr 0.00 in0.0 mm
07:47 AM 23.7°F-4.6°C 18.8°F-7.3°C 81% 2.3 mph SSW3.7 kmh SSW 4.5 mph7.2 kmh 30.15 in1021.0 mb 0.00 in0.0 mm 0.00 in/hr0.0 mm/hr 0.00 in0.0 mm
08:46 AM 23.2°F-4.9°C 19.1°F-7.2°C 84% 0.4 mph S0.6 kmh S 2.2 mph3.5 kmh 29.93 in1013.5 mb 0.00 in0.0 mm 0.00 in/hr0.0 mm/hr 0.00 in0.0 mm
08:57 AM 23.4°F-4.8°C 19.3°F-7.1°C 84% 0.6 mph S1.0 kmh S 2.2 mph3.5 kmh 29.94 in1013.9 mb 0.00 in0.0 mm 0.00 in/hr0.0 mm/hr 0.00 in0.0 mm
09:08 AM 23.7°F-4.6°C 19.6°F-6.9°C 84% 0.3 mph SSW0.5 kmh SSW 1.6 mph2.6 kmh 29.94 in1013.9 mb 0.00 in0.0 mm 0.00 in/hr0.0 mm/hr 0.00 in0.0 mm
09:19 AM 23.5°F-4.7°C 19.5°F-6.9°C 84% 0.7 mph NNE1.1 kmh NNE 2.2 mph3.5 kmh 29.95 in1014.2 mb 0.00 in0.0 mm 0.00 in/hr0.0 mm/hr 0.00 in0.0 mm
09:30 AM 23.9°F-4.5°C 20.1°F-6.6°C 85% 0.8 mph NE1.3 kmh NE 3.1 mph5.0 kmh 29.95 in1014.2 mb 0.00 in0.0 mm 0.00 in/hr0.0 mm/hr 0.00 in0.0 mm
09:41 AM 24.1°F-4.4°C 20.5°F-6.4°C 86% 0.5 mph NE0.8 kmh NE 3.1 mph5.0 kmh 29.94 in1013.9 mb 0.00 in0.0 mm 0.00 in/hr0.0 mm/hr 0.00 in0.0 mm
09:52 AM 23.9°F-4.5°C 20.1°F-6.6°C 85% 1.2 mph N1.9 kmh N 3.1 mph5.0 kmh 29.95 in1014.2 mb 0.00 in0.0 mm 0.00 in/hr0.0 mm/hr 0.00 in0.0 mm
10:03 AM 24.1°F-4.4°C 20.3°F-6.5°C 85% 1.7 mph NNE2.7 kmh NNE 3.8 mph6.1 kmh 29.95 in1014.2 mb 0.00 in0.0 mm 0.00 in/hr0.0 mm/hr 0.00 in0.0 mm
10:14 AM 24.6°F-4.1°C 20.8°F-6.2°C 85% 2.0 mph N3.2 kmh N 4.5 mph7.2 kmh 29.94 in1013.9 mb 0.00 in0.0 mm 0.00 in/hr0.0 mm/hr 0.00 in0.0 mm
10:25 AM 25.5°F-3.6°C 22.0°F-5.6°C 86% 1.5 mph NE2.4 kmh NE 3.8 mph6.1 kmh 29.94 in1013.9 mb 0.00 in0.0 mm 0.00 in/hr0.0 mm/hr 0.00 in0.0 mm
10:36 AM 26.1°F-3.3°C 22.2°F-5.4°C 85% 1.7 mph NE2.7 kmh NE 3.8 mph6.1 kmh 29.95 in1014.2 mb 0.00 in0.0 mm 0.00 in/hr0.0 mm/hr 0.00 in0.0 mm
10:47 AM 26.6°F-3.0°C 22.7°F-5.2°C 85% 2.1 mph N3.4 kmh N 4.5 mph7.2 kmh 29.95 in1014.2 mb 0.00 in0.0 mm 0.00 in/hr0.0 mm/hr 0.00 in0.0 mm
10:58 AM 27.7°F-2.4°C 24.1°F-4.4°C 86% 1.1 mph NNE1.8 kmh NNE 3.1 mph5.0 kmh 29.95 in1014.2 mb 0.00 in0.0 mm 0.00 in/hr0.0 mm/hr 0.00 in0.0 mm
11:09 AM 28.8°F-1.8°C 25.1°F-3.8°C 86% 1.3 mph NNE2.1 kmh NNE 4.5 mph7.2 kmh 29.95 in1014.2 mb 0.00 in0.0 mm 0.00 in/hr0.0 mm/hr 0.00 in0.0 mm
11:20 AM 30.4°F-0.9°C 26.4°F-3.1°C 85% 0.7 mph NNE1.1 kmh NNE 3.8 mph6.1 kmh 29.95 in1014.2 mb 0.00 in0.0 mm 0.00 in/hr0.0 mm/hr 0.00 in0.0 mm
11:31 AM 31.1°F-0.5°C 27.1°F-2.7°C 85% 0.8 mph NW1.3 kmh NW 3.1 mph5.0 kmh 29.95 in1014.2 mb 0.00 in0.0 mm 0.00 in/hr0.0 mm/hr 0.00 in0.0 mm
11:42 AM 32.4°F0.2°C 28.1°F-2.2°C 84% 1.1 mph W1.8 kmh W 3.8 mph6.1 kmh 29.95 in1014.2 mb 0.00 in0.0 mm 0.00 in/hr0.0 mm/hr 0.00 in0.0 mm
11:53 AM 33.4°F0.8°C 28.8°F-1.8°C 83% 0.8 mph WSW1.3 kmh WSW 3.8 mph6.1 kmh 29.95 in1014.2 mb 0.00 in0.0 mm 0.00 in/hr0.0 mm/hr 0.00 in0.0 mm
12:04 PM 34.3°F1.3°C 29.7°F-1.3°C 83% 1.5 mph SW2.4 kmh SW 4.5 mph7.2 kmh 29.95 in1014.2 mb 0.00 in0.0 mm 0.00 in/hr0.0 mm/hr 0.00 in0.0 mm
12:15 PM 35.2°F1.8°C 30.9°F-0.6°C 84% 1.4 mph SW2.3 kmh SW 4.5 mph7.2 kmh 29.95 in1014.2 mb 0.00 in0.0 mm 0.00 in/hr0.0 mm/hr 0.00 in0.0 mm
12:26 PM 36.7°F2.6°C 32.3°F0.2°C 84% 0.9 mph W1.4 kmh W 4.5 mph7.2 kmh 29.95 in1014.2 mb 0.00 in0.0 mm 0.00 in/hr0.0 mm/hr 0.00 in0.0 mm
12:37 PM 37.6°F3.1°C 32.3°F0.2°C 81% 2.4 mph WSW3.9 kmh WSW 6.0 mph9.7 kmh 29.94 in1013.9 mb 0.00 in0.0 mm 0.00 in/hr0.0 mm/hr 0.00 in0.0 mm
12:48 PM 38.7°F3.7°C 32.4°F0.2°C 78% 2.8 mph SW4.5 kmh SW 6.9 mph11.1 kmh 29.94 in1013.9 mb 0.00 in0.0 mm 0.00 in/hr0.0 mm/hr 0.00 in0.0 mm
12:59 PM 40.1°F4.5°C 33.1°F0.6°C 76% 2.1 mph SSE3.4 kmh SSE 5.4 mph8.7 kmh 29.94 in1013.9 mb 0.00 in0.0 mm 0.00 in/hr0.0 mm/hr 0.00 in0.0 mm
01:10 PM 40.6°F4.8°C 32.6°F0.3°C 73% 3.1 mph S5.0 kmh S 9.8 mph15.8 kmh 29.93 in1013.5 mb 0.00 in0.0 mm 0.00 in/hr0.0 mm/hr 0.00 in0.0 mm
01:21 PM 41.9°F5.5°C 34.1°F1.2°C 74% 2.1 mph SSE3.4 kmh SSE 8.3 mph13.4 kmh 29.93 in1013.5 mb 0.00 in0.0 mm 0.00 in/hr0.0 mm/hr 0.00 in0.0 mm
01:32 PM 43.2°F6.2°C 33.9°F1.1°C 70% 3.3 mph S5.3 kmh S 7.6 mph12.2 kmh 29.92 in1013.2 mb 0.00 in0.0 mm 0.00 in/hr0.0 mm/hr 0.00 in0.0 mm
01:43 PM 43.5°F6.4°C 33.5°F0.8°C 68% 4.0 mph WSW6.4 kmh WSW 7.6 mph12.2 kmh 29.92 in1013.2 mb 0.00 in0.0 mm 0.00 in/hr0.0 mm/hr 0.00 in0.0 mm
01:54 PM 45.1°F7.3°C 33.9°F1.1°C 65% 4.0 mph SW6.4 kmh SW 9.2 mph14.8 kmh 29.91 in1012.9 mb 0.00 in0.0 mm 0.00 in/hr0.0 mm/hr 0.00 in0.0 mm
02:05 PM 45.1°F7.3°C 33.5°F0.8°C 64% 3.2 mph SW5.1 kmh SW 9.2 mph14.8 kmh 29.91 in1012.9 mb 0.00 in0.0 mm 0.00 in/hr0.0 mm/hr 0.00 in0.0 mm
02:16 PM 46.2°F7.9°C 33.2°F0.7°C 61% 2.9 mph SW4.7 kmh SW 7.6 mph12.2 kmh 29.91 in1012.9 mb 0.00 in0.0 mm 0.00 in/hr0.0 mm/hr 0.00 in0.0 mm
02:27 PM 46.2°F7.9°C 32.8°F0.4°C 60% 4.6 mph WSW7.4 kmh WSW 10.7 mph17.2 kmh 29.91 in1012.9 mb 0.00 in0.0 mm 0.00 in/hr0.0 mm/hr 0.00 in0.0 mm
02:38 PM 46.4°F8.0°C 32.9°F0.5°C 60% 4.3 mph W6.9 kmh W 12.1 mph19.5 kmh 29.90 in1012.5 mb 0.00 in0.0 mm 0.00 in/hr0.0 mm/hr 0.00 in0.0 mm
02:49 PM 47.7°F8.7°C 32.8°F0.4°C 57% 4.0 mph SW6.4 kmh SW 9.8 mph15.8 kmh 29.90 in1012.5 mb 0.00 in0.0 mm 0.00 in/hr0.0 mm/hr 0.00 in0.0 mm
03:00 PM 48.2°F9.0°C 32.8°F0.4°C 56% 3.9 mph SW6.3 kmh SW 9.2 mph14.8 kmh 29.89 in1012.2 mb 0.00 in0.0 mm 0.00 in/hr0.0 mm/hr 0.00 in0.0 mm
03:11 PM 48.0°F8.9°C 31.7°F-0.2°C 54% 3.9 mph SW6.3 kmh SW 9.8 mph15.8 kmh 29.89 in1012.2 mb 0.00 in0.0 mm 0.00 in/hr0.0 mm/hr 0.00 in0.0 mm
03:22 PM 48.4°F9.1°C 32.5°F0.3°C 55% 3.6 mph W5.8 kmh W 8.3 mph13.4 kmh 29.88 in1011.9 mb 0.00 in0.0 mm 0.00 in/hr0.0 mm/hr 0.00 in0.0 mm
03:33 PM 48.9°F9.4°C 31.5°F-0.3°C 52% 3.7 mph SW6.0 kmh SW 9.2 mph14.8 kmh 29.88 in1011.9 mb 0.00 in0.0 mm 0.00 in/hr0.0 mm/hr 0.00 in0.0 mm
03:44 PM 49.1°F9.5°C 32.1°F0.1°C 53% 3.7 mph SW6.0 kmh SW 8.3 mph13.4 kmh 29.88 in1011.9 mb 0.00 in0.0 mm 0.00 in/hr0.0 mm/hr 0.00 in0.0 mm
03:55 PM 49.3°F9.6°C 32.3°F0.2°C 53% 4.0 mph WSW6.4 kmh WSW 9.2 mph14.8 kmh 29.88 in1011.9 mb 0.00 in0.0 mm 0.00 in/hr0.0 mm/hr 0.00 in0.0 mm
04:06 PM 49.3°F9.6°C 31.8°F-0.1°C 52% 4.5 mph SW7.2 kmh SW 9.8 mph15.8 kmh 29.88 in1011.9 mb 0.00 in0.0 mm 0.00 in/hr0.0 mm/hr 0.00 in0.0 mm
04:17 PM 49.6°F9.8°C 32.1°F0.1°C 52% 4.9 mph SSW7.9 kmh SSW 11.4 mph18.3 kmh 29.87 in1011.5 mb 0.00 in0.0 mm 0.00 in/hr0.0 mm/hr 0.00 in0.0 mm
04:28 PM 50.2°F10.1°C 32.6°F0.3°C 52% 3.7 mph SW6.0 kmh SW 8.3 mph13.4 kmh 29.87 in1011.5 mb 0.00 in0.0 mm 0.00 in/hr0.0 mm/hr 0.00 in0.0 mm
04:39 PM 50.0°F10.0°C 31.9°F-0.1°C 51% 3.6 mph WSW5.8 kmh WSW 8.3 mph13.4 kmh 29.87 in1011.5 mb 0.00 in0.0 mm 0.00 in/hr0.0 mm/hr 0.00 in0.0 mm
04:50 PM 50.2°F10.1°C 31.0°F-0.6°C 49% 2.7 mph W4.3 kmh W 6.9 mph11.1 kmh 29.87 in1011.5 mb 0.00 in0.0 mm 0.00 in/hr0.0 mm/hr 0.00 in0.0 mm
05:01 PM 50.4°F10.2°C 31.2°F-0.4°C 49% 2.4 mph W3.9 kmh W 6.9 mph11.1 kmh 29.87 in1011.5 mb 0.00 in0.0 mm 0.00 in/hr0.0 mm/hr 0.00 in0.0 mm
05:12 PM 50.7°F10.4°C 31.5°F-0.3°C 49% 2.6 mph SW4.2 kmh SW 6.0 mph9.7 kmh 29.87 in1011.5 mb 0.00 in0.0 mm 0.00 in/hr0.0 mm/hr 0.00 in0.0 mm
05:23 PM 50.4°F10.2°C 30.6°F-0.8°C 48% 3.4 mph WSW5.5 kmh WSW 7.6 mph12.2 kmh 29.86 in1011.2 mb 0.00 in0.0 mm 0.00 in/hr0.0 mm/hr 0.00 in0.0 mm
05:34 PM 50.4°F10.2°C 30.1°F-1.1°C 47% 2.4 mph W3.9 kmh W 6.9 mph11.1 kmh 29.87 in1011.5 mb 0.00 in0.0 mm 0.00 in/hr0.0 mm/hr 0.00 in0.0 mm
05:45 PM 50.4°F10.2°C 30.6°F-0.8°C 48% 2.0 mph W3.2 kmh W 5.4 mph8.7 kmh 29.86 in1011.2 mb 0.00 in0.0 mm 0.00 in/hr0.0 mm/hr 0.00 in0.0 mm
05:56 PM 49.8°F9.9°C 30.2°F-1.0°C 48% 2.5 mph WNW4.0 kmh WNW 6.9 mph11.1 kmh 29.86 in1011.2 mb 0.00 in0.0 mm 0.00 in/hr0.0 mm/hr 0.00 in0.0 mm
06:07 PM 49.6°F9.8°C 30.5°F-0.8°C 49% 1.7 mph W2.7 kmh W 4.5 mph7.2 kmh 29.87 in1011.5 mb 0.00 in0.0 mm 0.00 in/hr0.0 mm/hr 0.00 in0.0 mm
06:18 PM 49.5°F9.7°C 30.4°F-0.9°C 49% 0.9 mph NW1.4 kmh NW 3.1 mph5.0 kmh 29.86 in1011.2 mb 0.00 in0.0 mm 0.00 in/hr0.0 mm/hr 0.00 in0.0 mm
06:29 PM 48.9°F9.4°C 31.0°F-0.6°C 51% 0.4 mph NNW0.6 kmh NNW 2.2 mph3.5 kmh 29.86 in1011.2 mb 0.00 in0.0 mm 0.00 in/hr0.0 mm/hr 0.00 in0.0 mm
06:40 PM 48.2°F9.0°C 29.8°F-1.2°C 50% 0.4 mph NNW0.6 kmh NNW 1.6 mph2.6 kmh 29.87 in1011.5 mb 0.00 in0.0 mm 0.00 in/hr0.0 mm/hr 0.00 in0.0 mm
06:51 PM 47.3°F8.5°C 30.5°F-0.8°C 53% 0.4 mph N0.6 kmh N 1.6 mph2.6 kmh 29.87 in1011.5 mb 0.00 in0.0 mm 0.00 in/hr0.0 mm/hr 0.00 in0.0 mm
07:02 PM 46.4°F8.0°C 30.6°F-0.8°C 55% 0.2 mph E0.3 kmh E 1.6 mph2.6 kmh 29.87 in1011.5 mb 0.00 in0.0 mm 0.00 in/hr0.0 mm/hr 0.00 in0.0 mm
07:13 PM 44.6°F7.0°C 29.9°F-1.2°C 57% 0.7 mph ESE1.1 kmh ESE 2.2 mph3.5 kmh 29.87 in1011.5 mb 0.00 in0.0 mm 0.00 in/hr0.0 mm/hr 0.00 in0.0 mm
07:24 PM 43.9°F6.6°C 29.7°F-1.3°C 58% 0.5 mph SE0.8 kmh SE 2.2 mph3.5 kmh 29.87 in1011.5 mb 0.00 in0.0 mm 0.00 in/hr0.0 mm/hr 0.00 in0.0 mm
07:35 PM 43.2°F6.2°C 29.9°F-1.2°C 60% 0.6 mph SW1.0 kmh SW 1.6 mph2.6 kmh 29.88 in1011.9 mb 0.00 in0.0 mm 0.00 in/hr0.0 mm/hr 0.00 in0.0 mm
07:46 PM 42.4°F5.8°C 29.7°F-1.3°C 61% 0.2 mph S0.3 kmh S 1.6 mph2.6 kmh 29.88 in1011.9 mb 0.00 in0.0 mm 0.00 in/hr0.0 mm/hr 0.00 in0.0 mm
07:57 PM 41.2°F5.1°C 30.1°F-1.1°C 65% 0.6 mph S1.0 kmh S 1.6 mph2.6 kmh 29.88 in1011.9 mb 0.00 in0.0 mm 0.00 in/hr0.0 mm/hr 0.00 in0.0 mm
08:08 PM 40.8°F4.9°C 30.2°F-1.0°C 66% 0.7 mph S1.1 kmh S 1.6 mph2.6 kmh 29.88 in1011.9 mb 0.00 in0.0 mm 0.00 in/hr0.0 mm/hr 0.00 in0.0 mm
08:19 PM 39.6°F4.2°C 29.7°F-1.3°C 68% 1.4 mph N2.3 kmh N 7.6 mph12.2 kmh 29.88 in1011.9 mb 0.00 in0.0 mm 0.00 in/hr0.0 mm/hr 0.00 in0.0 mm
08:30 PM 38.8°F3.8°C 30.9°F-0.6°C 73% 2.9 mph N4.7 kmh N 6.9 mph11.1 kmh 29.89 in1012.2 mb 0.00 in0.0 mm 0.00 in/hr0.0 mm/hr 0.00 in0.0 mm
08:41 PM 38.3°F3.5°C 31.0°F-0.6°C 75% 2.5 mph N4.0 kmh N 4.5 mph7.2 kmh 29.89 in1012.2 mb 0.00 in0.0 mm 0.00 in/hr0.0 mm/hr 0.00 in0.0 mm
08:52 PM 37.2°F2.9°C 30.6°F-0.8°C 77% 3.2 mph N5.1 kmh N 6.0 mph9.7 kmh 29.89 in1012.2 mb 0.00 in0.0 mm 0.00 in/hr0.0 mm/hr 0.00 in0.0 mm
09:03 PM 35.8°F2.1°C 29.3°F-1.5°C 77% 3.5 mph NE5.6 kmh NE 6.0 mph9.7 kmh 29.89 in1012.2 mb 0.00 in0.0 mm 0.00 in/hr0.0 mm/hr 0.00 in0.0 mm
09:14 PM 35.4°F1.9°C 30.2°F-1.0°C 81% 3.9 mph NNE6.3 kmh NNE 9.2 mph14.8 kmh 29.90 in1012.5 mb 0.00 in0.0 mm 0.00 in/hr0.0 mm/hr 0.00 in0.0 mm
09:25 PM 36.0°F2.2°C 30.7°F-0.7°C 81% 4.1 mph N6.6 kmh N 7.6 mph12.2 kmh 29.90 in1012.5 mb 0.00 in0.0 mm 0.00 in/hr0.0 mm/hr 0.00 in0.0 mm
09:36 PM 36.0°F2.2°C 31.0°F-0.6°C 82% 3.3 mph N5.3 kmh N 7.6 mph12.2 kmh 29.90 in1012.5 mb 0.00 in0.0 mm 0.00 in/hr0.0 mm/hr 0.00 in0.0 mm
09:47 PM 36.0°F2.2°C 31.0°F-0.6°C 82% 3.9 mph NNE6.3 kmh NNE 9.2 mph14.8 kmh 29.91 in1012.9 mb 0.00 in0.0 mm 0.00 in/hr0.0 mm/hr 0.00 in0.0 mm
09:58 PM 35.4°F1.9°C 30.5°F-0.8°C 82% 5.0 mph NE8.0 kmh NE 9.2 mph14.8 kmh 29.91 in1012.9 mb 0.00 in0.0 mm 0.00 in/hr0.0 mm/hr 0.00 in0.0 mm
10:09 PM 35.4°F1.9°C 30.5°F-0.8°C 82% 2.5 mph N4.0 kmh N 6.9 mph11.1 kmh 29.91 in1012.9 mb 0.00 in0.0 mm 0.00 in/hr0.0 mm/hr 0.00 in0.0 mm
10:20 PM 35.4°F1.9°C 30.8°F-0.7°C 83% 4.5 mph NNE7.2 kmh NNE 9.8 mph15.8 kmh 29.91 in1012.9 mb 0.00 in0.0 mm 0.00 in/hr0.0 mm/hr 0.00 in0.0 mm
10:31 PM 35.8°F2.1°C 31.1°F-0.5°C 83% 7.8 mph NE12.6 kmh NE 13.0 mph20.9 kmh 29.91 in1012.9 mb 0.00 in0.0 mm 0.00 in/hr0.0 mm/hr 0.00 in0.0 mm
10:42 PM 36.0°F2.2°C 31.3°F-0.4°C 83% 6.2 mph NNE10.0 kmh NNE 11.4 mph18.3 kmh 29.91 in1012.9 mb 0.00 in0.0 mm 0.00 in/hr0.0 mm/hr 0.00 in0.0 mm
10:53 PM 35.6°F2.0°C 30.6°F-0.8°C 82% 5.5 mph NNE8.9 kmh NNE 9.8 mph15.8 kmh 29.91 in1012.9 mb 0.00 in0.0 mm 0.00 in/hr0.0 mm/hr 0.00 in0.0 mm
11:04 PM 35.2°F1.8°C 30.6°F-0.8°C 83% 3.7 mph NNE6.0 kmh NNE 7.6 mph12.2 kmh 29.92 in1013.2 mb 0.00 in0.0 mm 0.00 in/hr0.0 mm/hr 0.00 in0.0 mm
11:15 PM 35.1°F1.7°C 30.4°F-0.9°C 83% 5.8 mph NE9.3 kmh NE 11.4 mph18.3 kmh 29.92 in1013.2 mb 0.00 in0.0 mm 0.00 in/hr0.0 mm/hr 0.00 in0.0 mm
11:26 PM 35.4°F1.9°C 30.8°F-0.7°C 83% 8.2 mph NNE13.2 kmh NNE 13.0 mph20.9 kmh 29.92 in1013.2 mb 0.00 in0.0 mm 0.00 in/hr0.0 mm/hr 0.00 in0.0 mm
11:37 PM 35.2°F1.8°C 30.6°F-0.8°C 83% 8.3 mph NE13.4 kmh NE 12.1 mph19.5 kmh 29.92 in1013.2 mb 0.00 in0.0 mm 0.00 in/hr0.0 mm/hr 0.00 in0.0 mm
11:48 PM 35.2°F1.8°C 30.6°F-0.8°C 83% 8.3 mph NNE13.4 kmh NNE 13.0 mph20.9 kmh 29.92 in1013.2 mb 0.00 in0.0 mm 0.00 in/hr0.0 mm/hr 0.00 in0.0 mm
11:59 PM 35.1°F1.7°C 30.4°F-0.9°C 83% 7.3 mph NE11.7 kmh NE 12.1 mph19.5 kmh 29.92 in1013.2 mb 0.00 in0.0 mm 0.00 in/hr0.0 mm/hr 0.00 in0.0 mm